Time;durP1;ratioP1;P1;durP2;ratioP2;P2;SDS_P1;SDS_P2;PMS_P1;PMS_P2;Temp;Humidity;BMP_temperature;BMP_pressure;BME280_temperature;BME280_humidity;BME280_pressure;Samples;Min_cycle;Max_cycle;Signal;HPM_P1;HPM_P2
2021/03/01 00:00:18;;;;;;;14.38;10.65;;;26.00;81.50;;;;;;5069762;28;20090;-54
2021/03/01 00:02:45;;;;;;;13.07;10.50;;;26.10;80.90;;;;;;5070343;28;20035;-47
2021/03/01 00:05:14;;;;;;;14.65;10.55;;;26.20;80.90;;;;;;5070435;28;20435;-53
2021/03/01 00:07:42;;;;;;;13.45;12.07;;;26.20;80.90;;;;;;5065870;28;20028;-58
2021/03/01 00:10:12;;;;;;;12.70;10.27;;;26.20;80.80;;;;;;5070545;28;20082;-52
2021/03/01 00:12:40;;;;;;;11.73;10.38;;;26.20;80.90;;;;;;5070842;28;20068;-53
2021/03/01 00:15:11;;;;;;;11.55;10.32;;;26.30;80.30;;;;;;5069399;28;20024;-55
2021/03/01 00:17:39;;;;;;;11.10;9.50;;;26.30;80.50;;;;;;5066471;28;20029;-54
2021/03/01 00:20:09;;;;;;;11.63;9.23;;;26.30;80.50;;;;;;5070533;28;20421;-55
2021/03/01 00:22:36;;;;;;;12.35;9.85;;;26.30;80.20;;;;;;5069513;28;20021;-55
2021/03/01 00:25:05;;;;;;;12.63;10.25;;;26.40;80.00;;;;;;5070075;28;20032;-55
2021/03/01 00:27:32;;;;;;;11.27;9.65;;;26.40;80.00;;;;;;5066222;28;20028;-54
2021/03/01 00:30:00;;;;;;;11.93;10.40;;;26.50;79.80;;;;;;5067756;28;20020;-54
2021/03/01 00:32:27;;;;;;;11.55;9.40;;;26.60;79.10;;;;;;5068899;28;20032;-60
2021/03/01 00:34:55;;;;;;;11.18;9.73;;;26.60;79.40;;;;;;5070305;28;20044;-56
2021/03/01 00:37:22;;;;;;;10.30;9.27;;;26.70;78.90;;;;;;5066000;28;20020;-54
2021/03/01 00:39:49;;;;;;;11.82;9.38;;;26.70;79.20;;;;;;5068805;28;20379;-55
2021/03/01 00:42:17;;;;;;;11.07;10.00;;;26.70;79.10;;;;;;5069364;28;20036;-50
2021/03/01 00:44:44;;;;;;;10.00;9.00;;;26.80;78.50;;;;;;5069694;28;20029;-59
2021/03/01 00:47:12;;;;;;;11.27;8.90;;;26.90;78.50;;;;;;5065247;28;20384;-59
2021/03/01 00:49:40;;;;;;;10.48;9.30;;;27.00;78.20;;;;;;5068337;28;20033;-53
2021/03/01 00:52:07;;;;;;;12.90;10.02;;;27.10;77.90;;;;;;5069144;28;20044;-55
2021/03/01 00:54:34;;;;;;;11.02;9.65;;;27.20;77.20;;;;;;5068466;28;20024;-57
2021/03/01 00:57:02;;;;;;;11.05;9.18;;;27.20;77.50;;;;;;5064644;28;20033;-49
2021/03/01 00:59:29;;;;;;;10.65;9.18;;;27.20;77.70;;;;;;5068302;28;20039;-56
2021/03/01 01:01:57;;;;;;;10.70;9.23;;;27.30;77.10;;;;;;5068873;28;20046;-51
2021/03/01 01:04:24;;;;;;;13.55;9.23;;;27.40;76.60;;;;;;5069447;28;20020;-52
2021/03/01 01:06:52;;;;;;;13.95;9.73;;;27.40;76.70;;;;;;5062477;28;20063;-53
2021/03/01 01:09:19;;;;;;;11.25;9.13;;;27.40;77.00;;;;;;5067751;28;20527;-53
2021/03/01 01:11:46;;;;;;;12.30;9.25;;;27.60;76.30;;;;;;5069871;28;20041;-53
2021/03/01 01:14:14;;;;;;;10.73;8.55;;;27.70;75.70;;;;;;5069635;28;20025;-57
2021/03/01 01:16:41;;;;;;;10.63;9.15;;;27.80;75.90;;;;;;5065306;28;20047;-56
2021/03/01 01:19:09;;;;;;;10.27;9.25;;;27.90;75.50;;;;;;5068724;28;20379;-54
2021/03/01 01:21:36;;;;;;;10.80;9.27;;;27.90;75.00;;;;;;5069429;28;20027;-56
2021/03/01 01:24:04;;;;;;;11.20;9.32;;;27.90;75.30;;;;;;5068028;28;20032;-57
2021/03/01 01:26:32;;;;;;;10.15;9.13;;;27.80;75.70;;;;;;5065189;28;20028;-51
2021/03/01 01:28:59;;;;;;;14.23;9.88;;;28.00;75.10;;;;;;5067006;28;20359;-56
2021/03/01 01:31:27;;;;;;;10.95;9.00;;;27.90;75.10;;;;;;5067924;28;20040;-53
2021/03/01 01:33:54;;;;;;;9.60;8.48;;;28.20;74.90;;;;;;5069222;28;20047;-55
2021/03/01 01:36:22;;;;;;;10.43;8.40;;;28.40;74.60;;;;;;5064262;28;20072;-55
2021/03/01 01:38:49;;;;;;;10.23;8.93;;;28.30;75.00;;;;;;5068618;28;20021;-58
2021/03/01 01:41:17;;;;;;;9.30;8.35;;;28.30;74.50;;;;;;5068223;28;20029;-57
2021/03/01 01:43:44;;;;;;;9.57;8.30;;;28.40;74.50;;;;;;5068643;28;20028;-56
2021/03/01 01:46:12;;;;;;;9.80;8.63;;;28.40;74.20;;;;;;5064501;28;20202;-53
2021/03/01 01:48:39;;;;;;;11.05;8.20;;;28.40;74.50;;;;;;5068236;28;20370;-49
2021/03/01 01:51:07;;;;;;;10.57;7.95;;;28.50;74.80;;;;;;5067799;28;20031;-59
2021/03/01 01:53:34;;;;;;;10.50;7.82;;;28.60;74.40;;;;;;5068429;28;20017;-56
2021/03/01 01:56:02;;;;;;;9.90;7.95;;;28.60;74.70;;;;;;5063760;28;20032;-55
2021/03/01 01:58:30;;;;;;;12.32;7.78;;;28.70;74.00;;;;;;5068056;28;20028;-59
2021/03/01 02:00:57;;;;;;;11.13;7.95;;;28.60;74.40;;;;;;5067214;28;20017;-56
2021/03/01 02:03:51;;;;;;;9.15;7.68;;;28.70;74.30;;;;;;5068029;28;20495;-61
2021/03/01 02:06:43;;;;;;;9.50;7.90;;;28.80;73.50;;;;;;5055429;28;20049;-55
2021/03/01 02:09:45;;;;;;;7.88;6.80;;;28.80;73.70;;;;;;5067947;28;20100;-63
2021/03/01 02:12:23;;;;;;;9.23;6.75;;;28.80;74.30;;;;;;5067516;28;20143;-57
2021/03/01 02:15:12;;;;;;;11.95;8.23;;;28.90;74.10;;;;;;5066474;28;20552;-56
2021/03/01 02:17:39;;;;;;;8.52;7.82;;;28.90;73.40;;;;;;5063548;28;20472;-54
2021/03/01 02:20:11;;;;;;;8.02;7.32;;;28.90;73.20;;;;;;5068616;28;20150;-55
2021/03/01 02:22:40;;;;;;;11.32;7.07;;;28.90;73.50;;;;;;5068323;28;20033;-55
2021/03/01 02:25:11;;;;;;;10.93;7.15;;;29.00;73.40;;;;;;5066864;28;20518;-56
2021/03/01 02:27:54;;;;;;;10.00;7.28;;;29.00;73.70;;;;;;5063866;28;20089;-51
2021/03/01 02:30:25;;;;;;;7.72;7.00;;;29.10;73.70;;;;;;5067831;28;20052;-58
2021/03/01 02:33:03;;;;;;;8.75;7.88;;;29.10;73.30;;;;;;5066387;28;20159;-59
2021/03/01 02:35:36;;;;;;;7.47;6.78;;;29.00;73.90;;;;;;5064475;28;20040;-57
2021/03/01 02:38:08;;;;;;;10.32;7.05;;;29.10;73.70;;;;;;5065121;28;20017;-53
2021/03/01 02:40:38;;;;;;;8.60;7.13;;;29.10;73.30;;;;;;5070513;28;20028;-53
2021/03/01 02:43:06;;;;;;;9.85;7.40;;;29.10;73.20;;;;;;5070104;28;20035;-55
2021/03/01 02:45:34;;;;;;;7.65;6.72;;;29.00;73.50;;;;;;5070402;28;20029;-54
2021/03/01 02:48:03;;;;;;;9.40;6.60;;;29.20;73.50;;;;;;5071123;28;20449;-53
2021/03/01 02:50:31;;;;;;;7.80;6.50;;;29.10;74.00;;;;;;5069492;28;20028;-53
2021/03/01 02:52:59;;;;;;;7.65;6.55;;;29.10;73.80;;;;;;5070569;28;20033;-57
2021/03/01 02:55:27;;;;;;;6.93;6.22;;;29.20;74.00;;;;;;5070186;28;20450;-57
2021/03/01 02:57:57;;;;;;;9.13;7.57;;;29.20;73.80;;;;;;5069014;28;20071;-55
2021/03/01 03:00:25;;;;;;;8.80;7.70;;;29.00;73.80;;;;;;5070166;28;20487;-60
2021/03/01 03:02:53;;;;;;;8.73;6.93;;;28.90;74.30;;;;;;5073042;28;20029;-53
2021/03/01 03:05:22;;;;;;;12.55;7.35;;;28.80;74.70;;;;;;5073657;28;20025;-57
2021/03/01 03:07:50;;;;;;;9.13;6.78;;;28.80;74.60;;;;;;5074826;28;20095;-52
2021/03/01 03:10:18;;;;;;;10.25;6.53;;;28.80;75.50;;;;;;5074574;28;20017;-54
2021/03/01 03:12:46;;;;;;;7.93;7.05;;;29.00;75.00;;;;;;5074689;28;20043;-57
2021/03/01 03:15:20;;;;;;;8.13;5.68;;;28.90;75.20;;;;;;5074342;28;20029;-50
2021/03/01 03:17:50;;;;;;;8.45;6.38;;;29.00;74.90;;;;;;5074761;28;20124;-58
2021/03/01 03:20:18;;;;;;;9.88;7.13;;;29.00;75.00;;;;;;5074569;28;20483;-57
2021/03/01 03:22:45;;;;;;;7.35;6.47;;;29.00;75.30;;;;;;5074412;28;20035;-58
2021/03/01 03:25:13;;;;;;;9.43;6.10;;;28.80;74.90;;;;;;5074387;28;20024;-57
2021/03/01 03:27:41;;;;;;;8.50;5.72;;;28.90;75.40;;;;;;5074804;28;20029;-50
2021/03/01 03:30:15;;;;;;;8.02;5.78;;;28.90;75.90;;;;;;5073548;28;20060;-53
2021/03/01 03:32:43;;;;;;;7.80;6.30;;;28.80;75.40;;;;;;5072008;28;20094;-56
2021/03/01 03:35:12;;;;;;;13.85;5.95;;;28.80;75.50;;;;;;5073562;28;20491;-55
2021/03/01 03:38:14;;;;;;;8.23;6.03;;;28.90;76.20;;;;;;5074571;28;20036;-56
2021/03/01 03:40:45;;;;;;;11.33;5.53;;;28.80;76.10;;;;;;5070528;28;20051;-53
2021/03/01 03:43:16;;;;;;;10.23;6.28;;;28.90;76.30;;;;;;5074341;28;20116;-56
2021/03/01 03:45:45;;;;;;;5.68;4.53;;;28.70;76.10;;;;;;5073994;28;20025;-57
2021/03/01 03:48:14;;;;;;;9.15;5.82;;;28.90;75.80;;;;;;5073769;28;20112;-57
2021/03/01 03:50:43;;;;;;;6.80;5.68;;;28.80;75.70;;;;;;5073918;28;20024;-58
2021/03/01 03:53:16;;;;;;;8.57;5.95;;;28.80;75.70;;;;;;5073451;28;20468;-54
2021/03/01 03:55:48;;;;;;;6.10;5.07;;;28.80;76.00;;;;;;5072955;28;20090;-55
2021/03/01 03:58:22;;;;;;;7.97;4.70;;;28.80;75.90;;;;;;5074263;28;20021;-56
2021/03/01 04:00:53;;;;;;;8.07;4.70;;;28.80;76.50;;;;;;5074215;28;20102;-52
2021/03/01 04:03:22;;;;;;;9.20;5.20;;;29.00;76.30;;;;;;5073865;28;20684;-55
2021/03/01 04:05:52;;;;;;;7.93;5.20;;;29.00;76.40;;;;;;5073861;28;20471;-55
2021/03/01 04:08:20;;;;;;;8.48;4.68;;;28.90;76.10;;;;;;5073680;28;20082;-57
2021/03/01 04:10:52;;;;;;;9.85;4.88;;;28.80;76.60;;;;;;5073588;28;20451;-55
2021/03/01 04:13:22;;;;;;;6.82;4.57;;;28.90;76.80;;;;;;5063578;28;20029;-62
2021/03/01 04:15:50;;;;;;;8.38;5.50;;;28.90;76.50;;;;;;5071154;28;20052;-62
2021/03/01 04:18:25;;;;;;;7.07;5.13;;;28.90;76.50;;;;;;5069903;28;20020;-50
2021/03/01 04:20:56;;;;;;;6.82;4.90;;;28.90;76.50;;;;;;5070242;28;20056;-61
2021/03/01 04:23:25;;;;;;;5.90;4.75;;;28.90;77.00;;;;;;5070124;28;20379;-52
2021/03/01 04:25:54;;;;;;;5.75;4.47;;;29.00;76.00;;;;;;5070247;28;20074;-56
2021/03/01 04:28:21;;;;;;;7.78;5.40;;;28.90;76.00;;;;;;5069603;28;20411;-53
2021/03/01 04:30:50;;;;;;;6.18;4.20;;;29.00;76.20;;;;;;5067466;28;20116;-55
2021/03/01 04:33:19;;;;;;;6.07;4.55;;;29.00;76.20;;;;;;5069500;28;20040;-53
2021/03/01 04:35:49;;;;;;;7.78;4.43;;;28.90;76.40;;;;;;5069559;28;20422;-60
2021/03/01 04:38:16;;;;;;;8.15;5.03;;;28.90;76.60;;;;;;5069893;28;20029;-53
2021/03/01 04:40:44;;;;;;;6.18;4.28;;;28.90;76.40;;;;;;5065898;28;20048;-57
2021/03/01 04:43:12;;;;;;;8.13;5.40;;;28.80;77.10;;;;;;5069779;28;20021;-56
2021/03/01 04:45:40;;;;;;;7.93;4.72;;;28.90;77.30;;;;;;5070147;28;20435;-58
2021/03/01 04:48:10;;;;;;;5.43;4.50;;;28.90;77.60;;;;;;5068851;28;20191;-55
2021/03/01 04:50:38;;;;;;;8.93;4.50;;;29.00;77.10;;;;;;5066034;28;21449;-56
2021/03/01 04:53:06;;;;;;;8.82;5.10;;;29.10;76.70;;;;;;5067998;28;20044;-55
2021/03/01 04:55:34;;;;;;;6.57;4.35;;;29.10;76.40;;;;;;5070035;28;20374;-56
2021/03/01 04:58:02;;;;;;;7.43;4.20;;;29.10;77.00;;;;;;5069071;28;20111;-55
2021/03/01 05:00:30;;;;;;;8.07;4.50;;;29.20;76.60;;;;;;5064360;28;20038;-53
2021/03/01 05:02:58;;;;;;;6.55;4.70;;;29.10;76.20;;;;;;5068364;28;20542;-58
2021/03/01 05:05:26;;;;;;;8.55;4.65;;;29.10;77.10;;;;;;5068760;28;20024;-53
2021/03/01 05:07:58;;;;;;;9.00;4.50;;;29.00;76.60;;;;;;5069301;28;20134;-53
2021/03/01 05:10:29;;;;;;;6.72;4.15;;;29.00;76.80;;;;;;5066989;28;20020;-49
2021/03/01 05:12:57;;;;;;;6.82;4.20;;;29.00;77.30;;;;;;5067246;28;20414;-54
2021/03/01 05:15:24;;;;;;;8.77;5.15;;;29.10;77.10;;;;;;5069399;28;20039;-52
2021/03/01 05:17:51;;;;;;;6.22;4.25;;;29.00;76.80;;;;;;5067398;28;20475;-58
2021/03/01 05:20:19;;;;;;;7.95;3.75;;;29.00;77.10;;;;;;5068090;28;20028;-54
2021/03/01 05:22:49;;;;;;;6.65;3.90;;;29.10;78.00;;;;;;5065932;28;20028;-55
2021/03/01 05:25:17;;;;;;;8.70;4.30;;;29.10;77.60;;;;;;5069159;28;20024;-56
2021/03/01 05:27:44;;;;;;;7.68;4.20;;;29.10;76.60;;;;;;5068470;28;20534;-57
2021/03/01 05:30:12;;;;;;;9.95;4.70;;;29.10;76.70;;;;;;5068465;28;20447;-58
2021/03/01 05:32:40;;;;;;;4.32;3.65;;;29.10;76.90;;;;;;5067206;28;20359;-57
2021/03/01 05:35:10;;;;;;;8.35;4.57;;;29.10;77.30;;;;;;5071815;28;20040;-56
2021/03/01 05:37:38;;;;;;;10.93;5.45;;;29.00;78.20;;;;;;5071847;28;20028;-60
2021/03/01 05:40:06;;;;;;;10.73;4.38;;;29.00;77.70;;;;;;5089337;28;20016;-54
2021/03/01 05:42:35;;;;;;;8.63;4.40;;;29.00;77.70;;;;;;5092056;28;20028;-55
2021/03/01 05:45:08;;;;;;;7.50;4.53;;;28.90;77.60;;;;;;5091880;28;20024;-58
2021/03/01 05:47:39;;;;;;;6.05;3.90;;;28.90;77.60;;;;;;5080956;28;20024;-59
2021/03/01 05:50:11;;;;;;;7.97;4.97;;;28.80;78.50;;;;;;5072288;28;20016;-58
2021/03/01 05:52:45;;;;;;;14.23;8.02;;;28.70;78.10;;;;;;5071452;28;20036;-57
2021/03/01 05:55:14;;;;;;;17.20;7.40;;;28.50;80.00;;;;;;5071193;28;20472;-54
2021/03/01 05:57:43;;;;;;;18.38;8.90;;;28.50;79.50;;;;;;5071164;28;20395;-60
2021/03/01 06:00:12;;;;;;;24.02;13.55;;;28.40;79.50;;;;;;5069139;28;20043;-62
2021/03/01 06:02:39;;;;;;;17.70;9.27;;;28.40;79.90;;;;;;5071155;28;20422;-62
2021/03/01 06:05:07;;;;;;;16.90;6.65;;;28.30;82.60;;;;;;5069432;28;20486;-62
2021/03/01 06:07:35;;;;;;;24.45;8.23;;;28.70;81.80;;;;;;5071254;28;20032;-62
2021/03/01 06:10:03;;;;;;;31.23;12.10;;;28.80;79.40;;;;;;5071514;28;20040;-62
2021/03/01 06:12:30;;;;;;;24.45;11.07;;;28.30;80.30;;;;;;5071431;28;20147;-64
2021/03/01 06:14:59;;;;;;;16.42;5.47;;;28.50;81.30;;;;;;5071375;28;20088;-63
2021/03/01 06:17:27;;;;;;;20.77;9.23;;;28.30;83.10;;;;;;5071072;28;20388;-61
2021/03/01 06:19:56;;;;;;;19.45;5.03;;;28.40;81.10;;;;;;5071464;28;20032;-62
2021/03/01 06:22:32;;;;;;;21.42;10.50;;;28.40;83.20;;;;;;5070406;28;20021;-62
2021/03/01 06:25:07;;;;;;;29.77;11.38;;;28.80;80.30;;;;;;5071350;28;20560;-62
2021/03/01 06:27:54;;;;;;;24.63;11.95;;;28.30;81.60;;;;;;5069625;28;20134;-64
2021/03/01 06:30:24;;;;;;;22.38;7.30;;;28.20;81.90;;;;;;5069825;28;20017;-62
2021/03/01 06:33:18;;;;;;;22.13;10.70;;;28.80;81.80;;;;;;5070689;28;20110;-62
2021/03/01 06:35:50;;;;;;;16.40;5.28;;;28.30;82.10;;;;;;5066214;28;20415;-66
2021/03/01 06:38:29;;;;;;;;;;;28.50;84.10;;;;;;5070587;28;20040;-61
2021/03/01 06:41:28;;;;;;;16.73;8.75;;;29.00;81.20;;;;;;5070937;28;19904;-59
2021/03/01 06:44:01;;;;;;;17.02;6.03;;;28.60;81.80;;;;;;5028181;28;20036;-63
2021/03/01 06:46:30;;;;;;;21.67;6.65;;;28.90;81.00;;;;;;5050706;28;20475;-60
2021/03/01 06:49:18;;;;;;;16.20;7.95;;;28.90;82.20;;;;;;5050557;28;20032;-62
2021/03/01 06:51:47;;;;;;;17.02;6.93;;;28.90;82.40;;;;;;5050960;28;20063;-61
2021/03/01 06:54:26;;;;;;;23.25;8.57;;;28.80;82.30;;;;;;5049368;28;20382;-60
2021/03/01 06:56:54;;;;;;;19.95;7.03;;;28.80;82.30;;;;;;5048067;28;20092;-65
2021/03/01 06:59:24;;;;;;;18.93;11.17;;;29.00;82.50;;;;;;5063502;28;20021;-63
2021/03/01 07:01:58;;;;;;;24.80;7.00;;;28.80;81.70;;;;;;5067586;28;20029;-63
2021/03/01 07:04:30;;;;;;;27.60;9.57;;;28.90;82.20;;;;;;5068184;28;20035;-64
2021/03/01 07:07:00;;;;;;;24.77;14.98;;;28.80;82.90;;;;;;5066841;28;20032;-65
2021/03/01 07:09:37;;;;;;;18.90;7.20;;;28.70;81.40;;;;;;5068376;28;20024;-63
2021/03/01 07:12:04;;;;;;;17.50;12.77;;;29.00;81.30;;;;;;5066022;28;20033;-64
2021/03/01 07:14:32;;;;;;;20.65;8.18;;;28.70;81.50;;;;;;5068643;28;20446;-63
2021/03/01 07:17:00;;;;;;;27.15;18.98;;;28.90;82.30;;;;;;5065709;28;20024;-52
2021/03/01 07:19:34;;;;;;;27.48;22.33;;;28.80;82.40;;;;;;5066111;28;20025;-57
2021/03/01 07:22:09;;;;;;;21.13;11.68;;;28.70;82.30;;;;;;5069402;28;20024;-61
2021/03/01 07:24:36;;;;;;;17.98;11.40;;;28.70;83.00;;;;;;5070345;28;20029;-60
2021/03/01 07:27:05;;;;;;;20.23;10.93;;;28.70;82.20;;;;;;5059968;28;20091;-62
2021/03/01 07:29:37;;;;;;;25.05;9.48;;;28.60;83.00;;;;;;5068265;28;20077;-59
2021/03/01 07:32:13;;;;;;;19.67;10.73;;;28.70;83.00;;;;;;5070034;28;20127;-56
2021/03/01 07:34:41;;;;;;;20.02;13.98;;;28.70;83.30;;;;;;5063793;28;20116;-49
2021/03/01 07:37:09;;;;;;;21.60;13.38;;;28.70;83.20;;;;;;5059550;28;20033;-55
2021/03/01 07:39:37;;;;;;;20.45;10.63;;;28.60;83.40;;;;;;5048926;28;20105;-60
2021/03/01 07:42:11;;;;;;;17.10;9.55;;;28.60;83.70;;;;;;5051341;28;20021;-63
2021/03/01 07:44:40;;;;;;;20.23;9.95;;;28.60;84.00;;;;;;5048234;28;20490;-60
2021/03/01 07:47:09;;;;;;;24.33;10.32;;;28.50;83.90;;;;;;5046650;28;20039;-54
2021/03/01 07:49:45;;;;;;;17.20;7.40;;;28.50;84.80;;;;;;5048953;28;20113;-51
2021/03/01 07:52:22;;;;;;;18.48;9.32;;;28.60;84.10;;;;;;5052129;28;20041;-67
2021/03/01 07:55:01;;;;;;;19.65;8.13;;;28.60;84.00;;;;;;5053616;28;20017;-56
2021/03/01 07:57:33;;;;;;;18.23;8.27;;;28.60;84.30;;;;;;5053308;28;20029;-59
2021/03/01 08:00:23;;;;;;;15.95;8.13;;;28.60;84.20;;;;;;5053463;28;20025;-63
2021/03/01 08:02:50;;;;;;;20.10;9.02;;;28.60;84.70;;;;;;5053744;28;20426;-57
2021/03/01 08:05:27;;;;;;;23.80;10.07;;;28.50;85.60;;;;;;5053070;28;20444;-57
2021/03/01 08:07:54;;;;;;;26.50;9.70;;;28.50;87.50;;;;;;5053523;28;20021;-61
2021/03/01 08:10:34;;;;;;;15.70;8.05;;;28.40;85.60;;;;;;5053359;28;20025;-60
2021/03/01 08:13:05;;;;;;;21.33;8.82;;;28.40;86.50;;;;;;5068162;28;20037;-54
2021/03/01 08:15:34;;;;;;;25.27;9.00;;;28.30;86.40;;;;;;5073357;28;20028;-57
2021/03/01 08:18:03;;;;;;;22.20;8.18;;;28.30;86.10;;;;;;5073399;28;20566;-58
2021/03/01 08:20:35;;;;;;;30.05;10.18;;;28.30;85.70;;;;;;5072658;28;20078;-53
2021/03/01 08:23:07;;;;;;;16.42;7.88;;;28.20;86.60;;;;;;5072652;28;20398;-63
2021/03/01 08:25:50;;;;;;;17.77;9.25;;;28.20;86.80;;;;;;5072925;28;20031;-55
2021/03/01 08:28:18;;;;;;;22.55;8.43;;;28.20;87.60;;;;;;5072712;28;20064;-59
2021/03/01 08:30:50;;;;;;;17.35;8.40;;;28.20;87.40;;;;;;5072679;28;20535;-62
2021/03/01 08:33:17;;;;;;;15.93;9.23;;;28.20;87.10;;;;;;5072379;28;20036;-63
2021/03/01 08:35:46;;;;;;;17.35;9.13;;;28.20;87.80;;;;;;5072004;28;20123;-63
2021/03/01 08:38:16;;;;;;;14.00;8.90;;;28.20;88.30;;;;;;5070827;28;20074;-65
2021/03/01 08:41:16;;;;;;;17.70;8.80;;;28.10;88.90;;;;;;5072675;28;20103;-59
2021/03/01 08:43:51;;;;;;;18.80;9.25;;;28.00;88.20;;;;;;5037489;28;20127;-61
2021/03/01 08:46:21;;;;;;;26.00;9.60;;;28.00;88.60;;;;;;5051211;28;20029;-56
2021/03/01 08:48:51;;;;;;;14.48;8.05;;;28.00;88.40;;;;;;5052746;28;20083;-47
2021/03/01 08:51:20;;;;;;;30.45;9.27;;;28.00;89.00;;;;;;5065848;28;20047;-48
2021/03/01 08:53:51;;;;;;;16.23;8.02;;;28.00;89.50;;;;;;5066566;28;20032;-49
2021/03/01 08:56:23;;;;;;;25.90;9.18;;;28.00;89.20;;;;;;5065784;28;20079;-48
2021/03/01 08:58:51;;;;;;;18.70;8.48;;;28.00;89.70;;;;;;5065386;28;20033;-52
2021/03/01 09:01:19;;;;;;;21.85;8.32;;;28.00;89.40;;;;;;5069346;28;20029;-53
2021/03/01 09:03:47;;;;;;;19.98;8.98;;;28.00;89.40;;;;;;5064032;28;20495;-49
2021/03/01 09:06:21;;;;;;;22.48;9.60;;;28.00;88.10;;;;;;5067269;28;20025;-53
2021/03/01 09:08:53;;;;;;;16.33;8.38;;;28.00;90.30;;;;;;5069907;28;20590;-47
2021/03/01 09:11:28;;;;;;;17.27;9.38;;;28.00;90.40;;;;;;5067109;28;20121;-52
2021/03/01 09:14:00;;;;;;;24.30;9.77;;;28.00;90.20;;;;;;5051120;28;20029;-54
2021/03/01 09:16:30;;;;;;;22.95;8.98;;;27.90;90.00;;;;;;5052825;28;20396;-60
2021/03/01 09:19:05;;;;;;;22.85;9.48;;;27.90;90.00;;;;;;5051897;28;20021;-64
2021/03/01 09:21:37;;;;;;;16.27;9.20;;;27.90;90.60;;;;;;5052838;28;20029;-60
2021/03/01 09:24:04;;;;;;;15.60;8.63;;;27.90;90.40;;;;;;5052901;28;20025;-56
2021/03/01 09:26:35;;;;;;;18.60;9.15;;;27.90;90.70;;;;;;5052683;28;20072;-57
2021/03/01 09:29:20;;;;;;;19.35;9.07;;;27.80;90.80;;;;;;5052546;28;20025;-59
2021/03/01 09:31:49;;;;;;;14.38;9.02;;;27.80;90.40;;;;;;5067932;28;20047;-55
2021/03/01 09:34:18;;;;;;;18.00;9.82;;;27.80;91.10;;;;;;5051085;28;20032;-61
2021/03/01 09:36:50;;;;;;;30.67;10.80;;;27.80;90.40;;;;;;5062650;28;20064;-64
2021/03/01 09:39:27;;;;;;;17.65;10.50;;;27.80;89.50;;;;;;5072236;28;20029;-55
2021/03/01 09:41:56;;;;;;;16.90;10.40;;;27.80;89.60;;;;;;5071831;28;20025;-55
2021/03/01 09:44:28;;;;;;;22.98;11.45;;;27.70;90.00;;;;;;5072057;28;20378;-57
2021/03/01 09:46:57;;;;;;;18.05;10.82;;;27.70;90.20;;;;;;5057824;28;20510;-63
2021/03/01 09:49:30;;;;;;;19.45;9.80;;;27.70;90.20;;;;;;5069577;28;20032;-55
2021/03/01 09:51:58;;;;;;;18.25;9.55;;;27.60;90.80;;;;;;5068524;28;20037;-55
2021/03/01 09:54:31;;;;;;;22.05;10.65;;;27.60;90.40;;;;;;5063847;28;20028;-55
2021/03/01 09:57:05;;;;;;;16.73;9.23;;;27.60;90.90;;;;;;5063807;28;20166;-55
2021/03/01 09:59:43;;;;;;;13.93;9.32;;;27.60;90.60;;;;;;5069207;28;20084;-60
2021/03/01 10:02:25;;;;;;;17.20;9.05;;;27.60;90.30;;;;;;5068914;28;20063;-60
2021/03/01 10:05:09;;;;;;;12.52;8.88;;;27.50;90.70;;;;;;5069329;28;20116;-51
2021/03/01 10:07:36;;;;;;;18.77;9.45;;;27.50;90.70;;;;;;5063325;28;20052;-58
2021/03/01 10:10:15;;;;;;;13.60;9.35;;;27.50;90.60;;;;;;5069046;28;20028;-56
2021/03/01 10:12:47;;;;;;;15.93;10.13;;;27.50;90.40;;;;;;5066178;28;20048;-58
2021/03/01 10:15:14;;;;;;;;;;;27.40;90.00;;;;;;5068851;28;20029;-54
2021/03/01 10:17:41;;;;;;;20.48;10.32;;;27.40;90.50;;;;;;5064463;28;19908;-54
2021/03/01 10:20:12;;;;;;;14.05;8.77;;;27.40;90.60;;;;;;5068533;28;20044;-51
2021/03/01 10:22:59;;;;;;;11.73;8.73;;;27.40;90.60;;;;;;5068916;28;20028;-56
2021/03/01 10:25:40;;;;;;;14.75;8.90;;;27.30;90.50;;;;;;5066389;28;20067;-50
2021/03/01 10:28:27;;;;;;;;;;;27.30;90.00;;;;;;5065463;28;20095;-55
2021/03/01 10:31:16;;;;;;;15.38;9.05;;;27.30;90.40;;;;;;5067713;28;20413;-57
2021/03/01 10:33:55;;;;;;;16.42;9.23;;;27.20;90.60;;;;;;5063880;28;20040;-59
2021/03/01 10:36:24;;;;;;;15.23;10.95;;;27.20;90.20;;;;;;5065001;28;20040;-56
2021/03/01 10:39:00;;;;;;;14.57;9.05;;;27.20;90.20;;;;;;5064921;28;20028;-55
2021/03/01 10:41:32;;;;;;;11.25;8.50;;;27.10;90.60;;;;;;5065341;28;20021;-58
2021/03/01 10:44:10;;;;;;;11.38;8.82;;;27.10;90.60;;;;;;5067895;28;20033;-58
2021/03/01 10:46:42;;;;;;;10.98;8.40;;;27.10;90.70;;;;;;5065959;28;20047;-57
2021/03/01 10:49:24;;;;;;;14.23;10.55;;;27.10;90.60;;;;;;5066109;28;20028;-59
2021/03/01 10:51:53;;;;;;;14.85;9.48;;;27.00;90.30;;;;;;5068491;28;20037;-57
2021/03/01 10:54:21;;;;;;;12.45;9.32;;;27.00;90.60;;;;;;5068738;28;20100;-59
2021/03/01 10:56:49;;;;;;;21.08;10.55;;;26.90;90.70;;;;;;5063537;28;20029;-59
2021/03/01 10:59:17;;;;;;;14.95;9.13;;;26.90;90.50;;;;;;5068586;28;20037;-56
2021/03/01 11:01:46;;;;;;;15.60;8.95;;;26.90;90.70;;;;;;5068641;28;20025;-57
2021/03/01 11:04:15;;;;;;;15.70;8.63;;;27.00;90.70;;;;;;5067300;28;20170;-54
2021/03/01 11:06:45;;;;;;;17.33;10.23;;;26.90;90.50;;;;;;5064510;28;20033;-56
2021/03/01 11:09:13;;;;;;;15.07;8.43;;;26.90;90.50;;;;;;5067302;28;20481;-57
2021/03/01 11:11:47;;;;;;;17.05;9.20;;;26.80;90.60;;;;;;5066127;28;20403;-55
2021/03/01 11:14:16;;;;;;;14.88;9.60;;;26.80;90.60;;;;;;5069025;28;20016;-56
2021/03/01 11:16:44;;;;;;;15.63;9.40;;;26.80;90.70;;;;;;5071150;28;20024;-58
2021/03/01 11:19:13;;;;;;;13.60;8.82;;;26.70;90.80;;;;;;5070875;28;20024;-58
2021/03/01 11:21:41;;;;;;;13.40;8.23;;;26.70;90.80;;;;;;5071425;28;20043;-54
2021/03/01 11:24:10;;;;;;;14.88;8.43;;;26.70;90.80;;;;;;5074633;28;20070;-55
2021/03/01 11:26:37;;;;;;;14.05;8.77;;;26.70;90.60;;;;;;5075144;28;20070;-58
2021/03/01 11:29:08;;;;;;;14.83;8.50;;;26.70;90.60;;;;;;5075070;28;20038;-56
2021/03/01 11:31:36;;;;;;;10.90;7.97;;;26.70;90.70;;;;;;5075287;28;20033;-54
2021/03/01 11:34:06;;;;;;;11.23;8.20;;;26.60;90.50;;;;;;5073434;28;20048;-57
2021/03/01 11:36:37;;;;;;;12.27;8.18;;;26.60;90.60;;;;;;5073371;28;20172;-59
2021/03/01 11:39:07;;;;;;;15.70;8.80;;;26.50;90.60;;;;;;5071748;28;20094;-50
2021/03/01 11:41:35;;;;;;;16.05;8.77;;;26.50;90.70;;;;;;5063792;28;20482;-55
2021/03/01 11:44:03;;;;;;;15.60;9.30;;;26.50;90.60;;;;;;5069903;28;20071;-53
2021/03/01 11:46:31;;;;;;;16.63;9.60;;;26.50;90.70;;;;;;5072258;28;20071;-47
2021/03/01 11:48:59;;;;;;;14.45;7.82;;;26.40;90.70;;;;;;5070145;28;20120;-52
2021/03/01 11:51:27;;;;;;;12.18;8.63;;;26.40;90.70;;;;;;5069354;28;20467;-52
2021/03/01 11:53:54;;;;;;;12.88;8.38;;;26.40;90.60;;;;;;5069099;28;20039;-55
2021/03/01 11:56:25;;;;;;;12.77;8.00;;;26.30;90.30;;;;;;5071784;28;20038;-49
2021/03/01 11:58:52;;;;;;;14.80;8.73;;;26.20;90.60;;;;;;5071320;28;20025;-50
2021/03/01 12:01:19;;;;;;;16.67;8.35;;;26.20;90.60;;;;;;5070824;28;20474;-49
2021/03/01 12:03:47;;;;;;;15.45;8.10;;;26.20;90.60;;;;;;5068087;28;20059;-48
2021/03/01 12:06:15;;;;;;;13.05;8.05;;;26.10;90.60;;;;;;5069651;28;20056;-49
2021/03/01 12:08:42;;;;;;;12.18;7.68;;;26.10;90.60;;;;;;5071192;28;20024;-49
2021/03/01 12:11:10;;;;;;;10.48;7.05;;;26.00;90.50;;;;;;5070423;28;20037;-49
2021/03/01 12:13:37;;;;;;;14.57;7.95;;;26.00;90.60;;;;;;5066028;28;20483;-57
2021/03/01 12:16:08;;;;;;;13.60;7.88;;;26.00;90.70;;;;;;5070025;28;20020;-49
2021/03/01 12:18:35;;;;;;;14.57;8.15;;;26.00;90.70;;;;;;5070881;28;20489;-54
2021/03/01 12:21:03;;;;;;;13.05;7.63;;;25.90;90.40;;;;;;5071005;28;20028;-52
2021/03/01 12:23:31;;;;;;;13.27;7.55;;;25.90;90.80;;;;;;5065997;28;20028;-55
2021/03/01 12:25:58;;;;;;;12.27;7.88;;;25.90;90.30;;;;;;5070005;28;20024;-50
2021/03/01 12:28:26;;;;;;;12.95;7.72;;;25.80;90.60;;;;;;5072355;28;20075;-59
2021/03/01 12:30:54;;;;;;;15.70;8.68;;;25.80;90.40;;;;;;5066638;28;20021;-52
2021/03/01 12:33:21;;;;;;;13.50;7.63;;;25.80;90.60;;;;;;5069386;28;20033;-55
2021/03/01 12:35:48;;;;;;;15.65;8.07;;;25.80;90.60;;;;;;5072506;28;20052;-56
2021/03/01 12:38:16;;;;;;;13.07;7.25;;;25.70;90.50;;;;;;5070676;28;20055;-52
2021/03/01 12:40:43;;;;;;;13.85;7.82;;;25.70;90.40;;;;;;5068228;28;20020;-53
2021/03/01 12:43:10;;;;;;;16.75;7.35;;;25.70;90.50;;;;;;5069738;28;20482;-55
2021/03/01 12:45:38;;;;;;;15.73;8.23;;;25.70;90.60;;;;;;5069026;28;20779;-56
2021/03/01 12:48:06;;;;;;;19.85;7.63;;;25.70;90.40;;;;;;5070580;28;20119;-54
2021/03/01 12:50:33;;;;;;;17.92;8.13;;;25.60;90.40;;;;;;5069813;28;20457;-55
2021/03/01 12:53:00;;;;;;;16.83;8.85;;;25.50;90.40;;;;;;5070172;28;20033;-54
2021/03/01 12:55:28;;;;;;;20.50;7.82;;;25.50;90.50;;;;;;5067393;28;20447;-55